Time;durP1;ratioP1;P1;durP2;ratioP2;P2;SDS_P1;SDS_P2;PMS_P1;PMS_P2;Temp;Humidity;BMP_temperature;BMP_pressure;BME280_temperature;BME280_humidity;BME280_pressure;Samples;Min_cycle;Max_cycle;Signal;HPM_P1;HPM_P2
2023/12/29 00:00:18;;;;;;;4.65;1.23;;;10.80;99.90;;;;;;5005895;28;20030;-60
2023/12/29 00:02:43;;;;;;;4.43;1.02;;;10.80;99.90;;;;;;4984153;28;20140;-58
2023/12/29 00:05:09;;;;;;;4.32;1.30;;;10.80;99.90;;;;;;5010616;28;20021;-56
2023/12/29 00:07:34;;;;;;;2.42;1.02;;;10.80;99.90;;;;;;5005615;28;20113;-59
2023/12/29 00:10:00;;;;;;;3.00;1.10;;;11.00;99.90;;;;;;4999629;28;20129;-60
2023/12/29 00:12:25;;;;;;;5.65;1.27;;;11.00;99.90;;;;;;5007371;28;20026;-61
2023/12/29 00:14:51;;;;;;;5.72;1.15;;;11.10;99.90;;;;;;5007443;28;20031;-59
2023/12/29 00:17:16;;;;;;;4.70;1.20;;;11.10;99.90;;;;;;5003270;28;20030;-57
2023/12/29 00:19:42;;;;;;;5.10;1.13;;;11.20;99.90;;;;;;5005875;28;20061;-59
2023/12/29 00:22:07;;;;;;;5.82;1.30;;;11.20;99.90;;;;;;5008147;28;20105;-59
2023/12/29 00:24:33;;;;;;;9.32;1.63;;;11.20;99.90;;;;;;5005331;28;20034;-60
2023/12/29 00:26:59;;;;;;;3.63;0.88;;;11.10;99.90;;;;;;5006342;28;20518;-61
2023/12/29 00:29:25;;;;;;;5.18;1.30;;;11.20;99.90;;;;;;4999783;28;20055;-60
2023/12/29 00:31:50;;;;;;;5.65;1.48;;;11.10;99.90;;;;;;5007031;28;20034;-60
2023/12/29 00:34:16;;;;;;;6.88;1.50;;;11.10;99.90;;;;;;5002091;28;20133;-59
2023/12/29 00:36:41;;;;;;;7.55;0.98;;;11.10;99.90;;;;;;5009202;28;20038;-60
2023/12/29 00:39:07;;;;;;;11.60;1.42;;;11.10;99.90;;;;;;5001675;28;20030;-57
2023/12/29 00:41:32;;;;;;;4.63;0.90;;;11.10;99.90;;;;;;5014648;28;20033;-57
2023/12/29 00:43:58;;;;;;;5.93;1.15;;;11.10;99.90;;;;;;5014181;28;20014;-60
2023/12/29 00:46:23;;;;;;;4.20;1.20;;;11.10;99.90;;;;;;5010749;28;20033;-60
2023/12/29 00:48:49;;;;;;;6.57;1.02;;;11.10;99.90;;;;;;5003963;28;20511;-58
2023/12/29 00:51:14;;;;;;;4.70;1.17;;;11.20;99.90;;;;;;5012833;28;20037;-58
2023/12/29 00:53:40;;;;;;;6.90;1.52;;;11.20;99.90;;;;;;5008719;28;20030;-57
2023/12/29 00:56:12;;;;;;;7.32;1.48;;;11.20;99.90;;;;;;5012418;28;20025;-59
2023/12/29 00:58:37;;;;;;;7.50;1.38;;;11.20;99.90;;;;;;5009449;28;20432;-58
2023/12/29 01:01:04;;;;;;;13.23;1.70;;;11.20;99.90;;;;;;5007949;28;20033;-60
2023/12/29 01:03:30;;;;;;;6.45;1.50;;;11.20;99.90;;;;;;5008593;28;20394;-57
2023/12/29 01:05:55;;;;;;;7.25;1.90;;;11.10;99.90;;;;;;5008565;28;20033;-60
2023/12/29 01:08:21;;;;;;;6.60;1.35;;;11.20;99.90;;;;;;5005016;28;20026;-58
2023/12/29 01:10:46;;;;;;;8.13;1.30;;;11.10;99.90;;;;;;5011029;28;20033;-61
2023/12/29 01:13:12;;;;;;;7.53;1.35;;;11.10;99.90;;;;;;5010637;28;20400;-59
2023/12/29 01:15:38;;;;;;;7.53;1.50;;;11.10;99.90;;;;;;5006753;28;20113;-59
2023/12/29 01:18:03;;;;;;;2.60;1.08;;;11.10;99.90;;;;;;5007931;28;20026;-60
2023/12/29 01:20:29;;;;;;;4.28;1.33;;;11.10;99.90;;;;;;5007254;28;20504;-57
2023/12/29 01:22:54;;;;;;;8.88;1.63;;;11.10;99.90;;;;;;5009315;28;20025;-58
2023/12/29 01:25:20;;;;;;;10.13;1.50;;;11.10;99.90;;;;;;5010357;28;20032;-61
2023/12/29 01:27:46;;;;;;;5.85;2.35;;;11.10;99.90;;;;;;5011801;28;20030;-59
2023/12/29 01:30:11;;;;;;;6.03;1.65;;;11.00;99.90;;;;;;4990225;28;20081;-59
2023/12/29 01:32:37;;;;;;;9.15;1.60;;;11.00;99.90;;;;;;5007173;28;20030;-59
2023/12/29 01:35:03;;;;;;;6.05;1.63;;;11.00;99.90;;;;;;5003411;28;20017;-59
2023/12/29 01:37:28;;;;;;;5.05;1.20;;;11.00;99.90;;;;;;5005531;28;20027;-59
2023/12/29 01:39:54;;;;;;;5.72;1.50;;;10.90;99.90;;;;;;5005486;28;20037;-56
2023/12/29 01:42:19;;;;;;;10.10;1.83;;;10.90;99.90;;;;;;5007931;28;20412;-60
2023/12/29 01:44:45;;;;;;;7.45;1.67;;;10.90;99.90;;;;;;5011999;28;20515;-59
2023/12/29 01:47:15;;;;;;;4.85;1.70;;;10.90;99.90;;;;;;5009702;28;20025;-60
2023/12/29 01:49:43;;;;;;;9.55;2.83;;;11.00;99.90;;;;;;5008613;28;20030;-57
2023/12/29 01:52:09;;;;;;;6.72;1.67;;;11.00;99.90;;;;;;5010120;28;20026;-59
2023/12/29 01:54:38;;;;;;;8.80;1.52;;;11.00;99.90;;;;;;5008490;28;20037;-58
2023/12/29 01:57:04;;;;;;;3.55;1.25;;;11.00;99.90;;;;;;5009346;28;20036;-61
2023/12/29 01:59:31;;;;;;;7.03;1.58;;;11.00;99.90;;;;;;5003479;28;20030;-60
2023/12/29 02:01:56;;;;;;;6.45;1.50;;;11.00;99.90;;;;;;5006398;28;20058;-60
2023/12/29 02:04:24;;;;;;;9.60;2.15;;;11.00;99.90;;;;;;5001481;28;20077;-60
2023/12/29 02:06:51;;;;;;;9.00;1.60;;;11.10;99.90;;;;;;5011513;28;20057;-61
2023/12/29 02:09:17;;;;;;;5.78;2.17;;;11.10;99.90;;;;;;5008885;28;20049;-60
2023/12/29 02:11:44;;;;;;;11.43;1.88;;;11.10;99.90;;;;;;5011315;28;20041;-60
2023/12/29 02:14:10;;;;;;;8.52;1.70;;;11.10;99.90;;;;;;5005851;28;20026;-56
2023/12/29 02:16:48;;;;;;;12.43;2.00;;;11.10;99.90;;;;;;5009316;28;20038;-57
2023/12/29 02:19:37;;;;;;;7.13;1.77;;;11.10;99.90;;;;;;5005537;28;20254;-59
2023/12/29 02:22:03;;;;;;;7.18;1.58;;;11.20;99.90;;;;;;5011920;28;20056;-58
2023/12/29 02:24:29;;;;;;;11.73;1.70;;;11.20;99.90;;;;;;5011185;28;20069;-59
2023/12/29 02:27:07;;;;;;;16.40;1.80;;;11.20;99.90;;;;;;5008885;28;20660;-59
2023/12/29 02:29:33;;;;;;;5.15;1.40;;;11.30;99.90;;;;;;5010669;28;20038;-58
2023/12/29 02:32:00;;;;;;;7.00;1.50;;;11.30;99.90;;;;;;5012117;28;20021;-57
2023/12/29 02:34:29;;;;;;;9.27;2.75;;;11.30;99.90;;;;;;5011697;28;20026;-59
2023/12/29 02:36:55;;;;;;;8.50;1.67;;;11.40;99.90;;;;;;5009936;28;20116;-60
2023/12/29 02:39:21;;;;;;;7.25;1.60;;;11.40;99.90;;;;;;5008243;28;20039;-56
2023/12/29 02:41:47;;;;;;;10.95;2.90;;;11.40;99.90;;;;;;4999644;28;20026;-59
2023/12/29 02:44:13;;;;;;;9.27;2.00;;;11.40;99.90;;;;;;5010027;28;20041;-58
2023/12/29 02:46:38;;;;;;;9.85;1.45;;;11.40;99.90;;;;;;5008760;28;20471;-56
2023/12/29 02:49:04;;;;;;;12.23;2.13;;;11.50;99.90;;;;;;5005801;28;20030;-58
2023/12/29 02:51:29;;;;;;;9.15;1.60;;;11.50;99.90;;;;;;5004988;28;20461;-58
2023/12/29 02:53:55;;;;;;;11.27;1.27;;;11.50;99.90;;;;;;5008189;28;20030;-58
2023/12/29 02:56:21;;;;;;;12.77;1.48;;;11.40;99.90;;;;;;5000372;28;20025;-59
2023/12/29 02:58:48;;;;;;;10.85;1.80;;;11.40;99.90;;;;;;5009792;28;20037;-59
2023/12/29 03:01:13;;;;;;;9.85;2.00;;;11.50;99.90;;;;;;5002646;28;20176;-61
2023/12/29 03:03:39;;;;;;;8.13;1.40;;;11.50;99.90;;;;;;5011176;28;20464;-59
2023/12/29 03:06:06;;;;;;;9.13;1.88;;;11.50;99.90;;;;;;5007051;28;20037;-62
2023/12/29 03:08:32;;;;;;;8.60;1.90;;;11.60;99.90;;;;;;5012826;28;20049;-57
2023/12/29 03:10:57;;;;;;;11.85;1.80;;;11.50;99.90;;;;;;5001712;28;20029;-59
2023/12/29 03:13:23;;;;;;;12.80;1.70;;;11.50;99.90;;;;;;5006290;28;20026;-58
2023/12/29 03:15:48;;;;;;;4.20;1.40;;;11.60;99.90;;;;;;5005440;28;20044;-59
2023/12/29 03:18:14;;;;;;;8.18;1.35;;;11.70;99.90;;;;;;5010635;28;20033;-59
2023/12/29 03:20:39;;;;;;;13.70;1.77;;;11.70;99.90;;;;;;5004730;28;20030;-58
2023/12/29 03:23:05;;;;;;;8.40;1.40;;;11.60;99.90;;;;;;5008499;28;20029;-60
2023/12/29 03:25:30;;;;;;;9.15;1.25;;;11.60;99.90;;;;;;5006549;28;20026;-59
2023/12/29 03:27:56;;;;;;;9.70;1.77;;;11.60;99.90;;;;;;5007321;28;20481;-58
2023/12/29 03:30:21;;;;;;;5.97;1.90;;;11.60;99.90;;;;;;5004429;28;20097;-60
2023/12/29 03:32:47;;;;;;;8.80;1.90;;;11.70;99.90;;;;;;5003156;28;20065;-60
2023/12/29 03:35:13;;;;;;;7.43;1.27;;;11.70;99.90;;;;;;5006544;28;20068;-60
2023/12/29 03:37:38;;;;;;;20.23;2.53;;;11.60;99.90;;;;;;5006088;28;20668;-60
2023/12/29 03:40:04;;;;;;;6.55;1.45;;;11.60;99.90;;;;;;4992406;28;20152;-60
2023/12/29 03:42:30;;;;;;;10.10;1.23;;;11.60;99.90;;;;;;5010479;28;20058;-60
2023/12/29 03:44:55;;;;;;;11.43;1.60;;;11.70;99.90;;;;;;5009514;28;20076;-60
2023/12/29 03:47:21;;;;;;;15.32;1.92;;;11.70;99.90;;;;;;5003316;28;20030;-58
2023/12/29 03:49:46;;;;;;;11.57;1.77;;;11.70;99.90;;;;;;5005757;28;20074;-56
2023/12/29 03:52:12;;;;;;;14.98;1.77;;;11.70;99.90;;;;;;5000799;28;20034;-57
2023/12/29 03:54:37;;;;;;;3.78;1.20;;;11.60;99.90;;;;;;5006938;28;20033;-59
2023/12/29 03:57:03;;;;;;;7.38;1.30;;;11.60;99.90;;;;;;5000205;28;20042;-60
2023/12/29 03:59:28;;;;;;;7.85;1.48;;;11.60;99.90;;;;;;5010094;28;20029;-59
2023/12/29 04:01:54;;;;;;;11.25;1.85;;;11.60;99.90;;;;;;5004770;28;20052;-62
2023/12/29 04:04:20;;;;;;;11.25;1.67;;;11.60;99.90;;;;;;5009086;28;20032;-60
2023/12/29 04:06:45;;;;;;;7.00;1.10;;;11.60;99.90;;;;;;5007990;28;20419;-58
2023/12/29 04:09:11;;;;;;;11.85;1.80;;;11.60;99.90;;;;;;5006144;28;20588;-60
2023/12/29 04:11:36;;;;;;;11.05;1.45;;;11.70;99.90;;;;;;5002298;28;20045;-60
2023/12/29 04:14:02;;;;;;;7.15;1.55;;;11.70;99.90;;;;;;5010670;28;20109;-60
2023/12/29 04:16:27;;;;;;;9.25;1.55;;;11.60;99.90;;;;;;5008998;28;20535;-60
2023/12/29 04:18:53;;;;;;;7.50;1.67;;;11.60;99.90;;;;;;5012243;28;20480;-60
2023/12/29 04:21:18;;;;;;;6.80;1.35;;;11.60;99.90;;;;;;5011131;28;20085;-60
2023/12/29 04:23:44;;;;;;;5.50;1.00;;;11.60;99.90;;;;;;5009921;28;20057;-58
2023/12/29 04:26:09;;;;;;;7.43;1.33;;;11.60;99.90;;;;;;5001731;28;20389;-61
2023/12/29 04:28:35;;;;;;;8.75;1.52;;;11.60;99.90;;;;;;5007629;28;20132;-59
2023/12/29 04:31:00;;;;;;;9.52;1.58;;;11.60;99.90;;;;;;5011535;28;20034;-60
2023/12/29 04:33:26;;;;;;;9.88;1.30;;;11.60;99.90;;;;;;5008437;28;20038;-59
2023/12/29 04:35:52;;;;;;;8.43;1.70;;;11.60;99.90;;;;;;5009972;28;20069;-60
2023/12/29 04:38:19;;;;;;;9.52;1.30;;;11.60;99.90;;;;;;5009284;28;20022;-60
2023/12/29 04:40:47;;;;;;;11.48;1.77;;;11.50;99.90;;;;;;5008404;28;20396;-60
2023/12/29 04:43:13;;;;;;;14.93;1.83;;;11.50;99.90;;;;;;5009549;28;20030;-61
2023/12/29 04:45:38;;;;;;;7.95;1.40;;;11.50;99.90;;;;;;5009351;28;20037;-60
2023/12/29 04:48:04;;;;;;;12.55;1.75;;;11.60;99.90;;;;;;5005059;28;20622;-60
2023/12/29 04:50:29;;;;;;;8.93;1.27;;;11.60;99.90;;;;;;5011927;28;20707;-60
2023/12/29 04:52:55;;;;;;;11.63;1.52;;;11.60;99.90;;;;;;5013503;28;20084;-60
2023/12/29 04:55:20;;;;;;;8.43;1.35;;;11.60;99.90;;;;;;5009420;28;20029;-60
2023/12/29 04:57:46;;;;;;;4.65;1.08;;;11.60;99.90;;;;;;5009273;28;20038;-60
2023/12/29 05:00:12;;;;;;;6.95;1.10;;;11.60;99.90;;;;;;5007495;28;20035;-59
2023/12/29 05:02:38;;;;;;;7.75;1.60;;;11.60;99.90;;;;;;5002126;28;20094;-59
2023/12/29 05:05:04;;;;;;;9.63;1.40;;;11.60;99.90;;;;;;4990728;28;20025;-61
2023/12/29 05:07:30;;;;;;;8.45;1.50;;;11.60;99.90;;;;;;5014446;28;20048;-60
2023/12/29 05:09:55;;;;;;;6.53;1.50;;;11.70;99.90;;;;;;5008055;28;20057;-60
2023/12/29 05:12:21;;;;;;;10.38;1.10;;;11.70;99.90;;;;;;5010473;28;20113;-61
2023/12/29 05:14:46;;;;;;;5.90;1.25;;;11.70;99.90;;;;;;5014023;28;20085;-60
2023/12/29 05:17:12;;;;;;;8.85;1.33;;;11.80;99.90;;;;;;5003335;28;20471;-59
2023/12/29 05:19:37;;;;;;;5.60;1.42;;;11.80;99.90;;;;;;5010386;28;20092;-60
2023/12/29 05:22:03;;;;;;;10.63;1.27;;;11.70;99.90;;;;;;5004645;28;20041;-59
2023/12/29 05:24:28;;;;;;;8.65;1.77;;;11.60;99.90;;;;;;5012785;28;20050;-60
2023/12/29 05:26:54;;;;;;;5.88;1.10;;;11.60;99.90;;;;;;5004899;28;20029;-60
2023/12/29 05:29:20;;;;;;;6.78;1.27;;;11.60;99.90;;;;;;5010835;28;20484;-60
2023/12/29 05:31:45;;;;;;;8.65;1.20;;;11.60;99.90;;;;;;5008592;28;20034;-61
2023/12/29 05:34:12;;;;;;;13.00;1.92;;;11.60;99.90;;;;;;5006865;28;20046;-59
2023/12/29 05:36:38;;;;;;;12.02;1.77;;;11.60;99.90;;;;;;5004800;28;20109;-61
2023/12/29 05:39:04;;;;;;;12.35;1.38;;;11.50;99.90;;;;;;5012320;28;20041;-62
2023/12/29 05:41:29;;;;;;;10.88;1.48;;;11.50;99.90;;;;;;5004116;28;20026;-61
2023/12/29 05:43:57;;;;;;;9.10;1.02;;;11.40;99.90;;;;;;5013597;28;20030;-59
2023/12/29 05:46:23;;;;;;;11.40;1.52;;;11.40;99.90;;;;;;5007112;28;20026;-60
2023/12/29 05:48:48;;;;;;;11.90;1.30;;;11.40;99.90;;;;;;5012461;28;20384;-60
2023/12/29 05:51:14;;;;;;;7.70;1.27;;;11.40;99.90;;;;;;5012722;28;20487;-60
2023/12/29 05:53:40;;;;;;;5.00;1.88;;;11.40;99.90;;;;;;5011255;28;20037;-59
2023/12/29 05:56:06;;;;;;;9.95;1.60;;;11.40;99.90;;;;;;5008303;28;20444;-60
2023/12/29 05:58:31;;;;;;;11.65;2.10;;;11.50;99.90;;;;;;4994716;28;20022;-58
2023/12/29 06:00:58;;;;;;;7.43;1.35;;;11.50;99.90;;;;;;5006163;28;20408;-60
2023/12/29 06:03:24;;;;;;;5.97;1.45;;;11.50;99.90;;;;;;5004585;28;20033;-60
2023/12/29 06:05:49;;;;;;;9.35;1.65;;;11.40;99.90;;;;;;5013091;28;20022;-60
2023/12/29 06:08:15;;;;;;;9.85;1.63;;;11.40;99.90;;;;;;5011218;28;20022;-59
2023/12/29 06:10:41;;;;;;;15.35;1.58;;;11.30;99.90;;;;;;5011260;28;20037;-61
2023/12/29 06:13:06;;;;;;;8.52;1.02;;;11.30;99.90;;;;;;5005642;28;20052;-60
2023/12/29 06:15:32;;;;;;;5.50;1.02;;;11.30;99.90;;;;;;5007977;28;20056;-60
2023/12/29 06:17:58;;;;;;;8.38;1.35;;;11.30;99.90;;;;;;4993879;28;20041;-59
2023/12/29 06:20:24;;;;;;;9.20;1.50;;;11.40;99.90;;;;;;5010319;28;20058;-61
2023/12/29 06:22:49;;;;;;;7.20;1.63;;;11.30;99.90;;;;;;5006831;28;20574;-60
2023/12/29 06:25:15;;;;;;;6.05;1.55;;;11.30;99.90;;;;;;5012511;28;20029;-59
2023/12/29 06:27:40;;;;;;;5.55;1.50;;;11.30;99.90;;;;;;5007322;28;20136;-60
2023/12/29 06:30:07;;;;;;;5.00;1.02;;;11.30;99.90;;;;;;5005310;28;20485;-60
2023/12/29 06:32:33;;;;;;;8.48;0.95;;;11.30;99.90;;;;;;5007869;28;20022;-58
2023/12/29 06:34:59;;;;;;;7.75;1.38;;;11.20;99.90;;;;;;5010891;28;20053;-58
2023/12/29 06:37:24;;;;;;;9.85;1.30;;;11.20;99.90;;;;;;5011412;28;20022;-61
2023/12/29 06:39:50;;;;;;;5.68;1.25;;;11.20;99.90;;;;;;5005888;28;20117;-57
2023/12/29 06:42:15;;;;;;;14.05;1.52;;;11.30;99.90;;;;;;5001274;28;20029;-61
2023/12/29 06:44:41;;;;;;;7.90;1.23;;;11.20;99.90;;;;;;5005177;28;20026;-62
2023/12/29 06:47:06;;;;;;;9.45;1.40;;;11.20;99.90;;;;;;5003942;28;20521;-60
2023/12/29 06:49:34;;;;;;;4.28;1.23;;;11.20;99.90;;;;;;5012383;28;20022;-58
2023/12/29 06:51:59;;;;;;;6.53;1.15;;;11.20;99.90;;;;;;5005669;28;20348;-60
2023/12/29 06:54:25;;;;;;;5.93;1.27;;;11.20;99.90;;;;;;5009568;28;20033;-60
2023/12/29 06:56:50;;;;;;;9.52;1.42;;;11.20;99.90;;;;;;5004695;28;20095;-57
2023/12/29 06:59:16;;;;;;;8.10;1.52;;;11.20;99.90;;;;;;5007118;28;21787;-57
2023/12/29 07:01:41;;;;;;;6.18;1.13;;;11.20;99.90;;;;;;5005439;28;20030;-60
2023/12/29 07:04:10;;;;;;;4.85;1.00;;;11.20;99.90;;;;;;5012159;28;20061;-60
2023/12/29 07:06:36;;;;;;;5.72;1.20;;;11.20;99.90;;;;;;5012376;28;20026;-57
2023/12/29 07:09:02;;;;;;;3.45;1.98;;;11.20;99.90;;;;;;5011194;28;20134;-58
2023/12/29 07:11:28;;;;;;;7.40;1.20;;;11.20;99.90;;;;;;5010947;28;20499;-60
2023/12/29 07:13:53;;;;;;;5.75;1.40;;;11.20;99.90;;;;;;5005419;28;20033;-60
2023/12/29 07:16:20;;;;;;;6.28;1.27;;;11.20;99.90;;;;;;5007628;28;20030;-62
2023/12/29 07:18:46;;;;;;;7.53;1.00;;;11.20;99.90;;;;;;5009788;28;20034;-58
2023/12/29 07:21:12;;;;;;;4.50;0.98;;;11.20;99.90;;;;;;5004202;28;20109;-59
2023/12/29 07:23:38;;;;;;;7.82;1.27;;;11.20;99.90;;;;;;5005274;28;20092;-60
2023/12/29 07:26:04;;;;;;;6.03;1.00;;;11.30;99.90;;;;;;5004708;28;20022;-60
2023/12/29 07:28:31;;;;;;;7.30;1.10;;;11.20;99.90;;;;;;5006190;28;20018;-56
2023/12/29 07:30:56;;;;;;;4.70;0.88;;;11.10;99.90;;;;;;5009423;28;20484;-62
2023/12/29 07:33:23;;;;;;;5.15;1.35;;;11.10;99.90;;;;;;5008555;28;20037;-59
2023/12/29 07:35:49;;;;;;;4.30;1.20;;;11.10;99.90;;;;;;5008771;28;20025;-60
2023/12/29 07:38:15;;;;;;;8.23;1.13;;;11.20;99.90;;;;;;5005524;28;20052;-60
2023/12/29 07:40:40;;;;;;;6.45;0.85;;;11.10;99.90;;;;;;5005810;28;20050;-60
2023/12/29 07:43:06;;;;;;;4.72;0.98;;;11.10;99.90;;;;;;5006775;28;20088;-60
2023/12/29 07:45:31;;;;;;;8.60;1.52;;;11.10;99.90;;;;;;5007045;28;20026;-60
2023/12/29 07:47:57;;;;;;;4.35;0.93;;;11.20;99.90;;;;;;5004562;28;20465;-59
2023/12/29 07:50:22;;;;;;;4.97;1.13;;;11.20;99.90;;;;;;5005737;28;20037;-60
2023/12/29 07:52:48;;;;;;;5.40;1.42;;;11.20;99.90;;;;;;5003609;28;20082;-61
2023/12/29 07:55:16;;;;;;;5.97;0.70;;;11.10;99.90;;;;;;5005206;28;20026;-59
2023/12/29 07:57:42;;;;;;;3.70;0.60;;;11.10;99.90;;;;;;5005333;28;20034;-60
2023/12/29 08:00:09;;;;;;;4.97;0.90;;;11.20;99.90;;;;;;5004902;28;20050;-57
2023/12/29 08:02:35;;;;;;;5.65;0.80;;;11.20;99.90;;;;;;4986856;28;20027;-60
2023/12/29 08:05:00;;;;;;;3.63;0.60;;;11.10;99.90;;;;;;5007935;28;20061;-58
2023/12/29 08:07:26;;;;;;;6.20;1.05;;;11.10;99.90;;;;;;5000756;28;20112;-62
2023/12/29 08:09:51;;;;;;;2.58;0.63;;;11.10;99.90;;;;;;5008822;28;20473;-58
2023/12/29 08:12:17;;;;;;;4.90;0.88;;;11.10;99.90;;;;;;5002422;28;20160;-58
2023/12/29 08:14:42;;;;;;;7.63;1.33;;;11.00;99.90;;;;;;5006602;28;20061;-61
2023/12/29 08:17:08;;;;;;;5.75;1.00;;;10.90;99.90;;;;;;5009914;28;20045;-61
2023/12/29 08:19:34;;;;;;;13.85;1.02;;;10.90;99.90;;;;;;5009607;28;20037;-62
2023/12/29 08:22:00;;;;;;;7.55;1.40;;;10.80;99.90;;;;;;5005341;28;20022;-61
2023/12/29 08:24:25;;;;;;;7.50;1.52;;;10.80;99.90;;;;;;5005225;28;20033;-60
2023/12/29 08:26:51;;;;;;;5.20;1.10;;;10.60;99.90;;;;;;5009135;28;20021;-59
2023/12/29 08:29:17;;;;;;;11.45;1.63;;;10.50;99.90;;;;;;5009277;28;20376;-58
2023/12/29 08:31:43;;;;;;;13.38;2.03;;;10.40;99.90;;;;;;5005441;28;20015;-59
2023/12/29 08:34:09;;;;;;;4.82;1.23;;;10.40;99.90;;;;;;5003057;28;20088;-60
2023/12/29 08:36:35;;;;;;;12.70;1.50;;;10.20;99.90;;;;;;5002782;28;20493;-59
2023/12/29 08:39:01;;;;;;;10.05;1.33;;;10.20;99.90;;;;;;5005887;28;20503;-59
2023/12/29 08:41:26;;;;;;;11.13;1.45;;;10.30;99.90;;;;;;5002491;28;20033;-59
2023/12/29 08:43:53;;;;;;;5.28;1.48;;;10.20;99.90;;;;;;5004677;28;20029;-57
2023/12/29 08:46:18;;;;;;;4.10;1.40;;;10.10;99.90;;;;;;5002698;28;20060;-59
2023/12/29 08:48:44;;;;;;;9.05;1.48;;;10.10;99.90;;;;;;5006733;28;20035;-57
2023/12/29 08:51:10;;;;;;;3.95;1.75;;;10.10;99.90;;;;;;5006156;28;20018;-59
2023/12/29 08:53:35;;;;;;;7.60;1.27;;;10.00;99.90;;;;;;5006162;28;20038;-57
2023/12/29 08:56:04;;;;;;;10.00;1.55;;;10.00;99.90;;;;;;5006722;28;20033;-57
2023/12/29 08:58:31;;;;;;;6.45;1.58;;;10.00;99.90;;;;;;5006322;28;20026;-60
2023/12/29 09:00:56;;;;;;;11.68;1.67;;;10.00;99.90;;;;;;5010074;28;20610;-59
2023/12/29 09:03:22;;;;;;;6.18;1.73;;;10.00;99.90;;;;;;5013181;28;20109;-57
2023/12/29 09:05:47;;;;;;;6.47;1.63;;;10.00;99.90;;;;;;5013203;28;20033;-60
2023/12/29 09:08:13;;;;;;;9.82;1.38;;;10.00;99.90;;;;;;5012585;28;20030;-59
2023/12/29 09:10:38;;;;;;;6.20;1.45;;;10.00;99.90;;;;;;5012855;28;20484;-58
2023/12/29 09:13:05;;;;;;;5.30;1.20;;;10.10;99.90;;;;;;5010475;28;20034;-59
2023/12/29 09:15:30;;;;;;;5.05;1.63;;;10.10;99.90;;;;;;5011869;28;20038;-60
2023/12/29 09:17:56;;;;;;;8.65;1.67;;;10.10;99.90;;;;;;5008212;28;20026;-60
2023/12/29 09:20:21;;;;;;;7.28;1.77;;;10.20;99.90;;;;;;5006173;28;20030;-57
2023/12/29 09:22:47;;;;;;;10.10;1.52;;;10.20;99.90;;;;;;5007433;28;20445;-57
2023/12/29 09:25:13;;;;;;;6.88;1.33;;;10.20;99.90;;;;;;5001665;28;20022;-58
2023/12/29 09:27:38;;;;;;;8.57;1.83;;;10.20;99.90;;;;;;5007590;28;20044;-58
2023/12/29 09:30:05;;;;;;;6.18;1.15;;;10.30;99.90;;;;;;5005742;28;20057;-59
2023/12/29 09:32:30;;;;;;;5.32;1.00;;;10.40;99.90;;;;;;5008575;28;20077;-58
2023/12/29 09:34:56;;;;;;;6.10;1.05;;;10.50;99.90;;;;;;5004247;28;20031;-59
2023/12/29 09:37:22;;;;;;;6.55;1.30;;;10.60;99.90;;;;;;5008356;28;20026;-60
2023/12/29 09:39:47;;;;;;;7.65;1.25;;;10.60;99.90;;;;;;5008836;28;20392;-57
2023/12/29 09:42:20;;;;;;;6.35;1.05;;;10.60;99.90;;;;;;5007014;28;20041;-58
2023/12/29 09:44:49;;;;;;;12.73;1.40;;;10.60;99.90;;;;;;5008132;28;20639;-58
2023/12/29 09:47:16;;;;;;;8.68;1.38;;;10.70;99.90;;;;;;5005784;28;20014;-55
2023/12/29 09:49:43;;;;;;;12.63;1.48;;;10.70;99.90;;;;;;5010273;28;20028;-57
2023/12/29 09:52:12;;;;;;;5.93;1.30;;;10.70;99.90;;;;;;5003781;28;20420;-56
2023/12/29 09:54:39;;;;;;;4.65;1.13;;;10.70;99.90;;;;;;5008885;28;20057;-58
2023/12/29 09:57:05;;;;;;;4.32;1.10;;;10.80;99.90;;;;;;5003593;28;20224;-59
2023/12/29 09:59:36;;;;;;;4.75;1.50;;;10.80;99.90;;;;;;5009846;28;20065;-59
2023/12/29 10:02:04;;;;;;;5.38;1.80;;;10.90;99.90;;;;;;5002694;28;20030;-57
2023/12/29 10:04:29;;;;;;;3.42;1.23;;;10.90;99.90;;;;;;5007516;28;20432;-60
2023/12/29 10:07:00;;;;;;;7.85;1.30;;;10.90;99.90;;;;;;5005198;28;20030;-58
2023/12/29 10:09:27;;;;;;;4.97;1.25;;;11.10;99.90;;;;;;5009275;28;20064;-59
2023/12/29 10:11:53;;;;;;;4.35;1.00;;;11.00;99.90;;;;;;5003602;28;20574;-56
2023/12/29 10:14:24;;;;;;;5.47;1.25;;;11.10;99.90;;;;;;5006508;28;20030;-56
2023/12/29 10:17:09;;;;;;;7.35;1.05;;;11.10;99.90;;;;;;5007961;28;20026;-59
2023/12/29 10:19:50;;;;;;;8.77;1.58;;;11.10;99.90;;;;;;5010379;28;20030;-58
2023/12/29 10:22:26;;;;;;;5.18;1.00;;;11.10;99.90;;;;;;5004413;28;20065;-59
2023/12/29 10:24:52;;;;;;;2.80;0.70;;;11.10;99.90;;;;;;5006868;28;20030;-58
2023/12/29 10:27:18;;;;;;;4.15;0.80;;;11.20;99.90;;;;;;5009722;28;20533;-58
2023/12/29 10:29:43;;;;;;;4.35;1.55;;;11.20;99.90;;;;;;5000719;28;20135;-58
2023/12/29 10:32:09;;;;;;;2.88;0.98;;;11.20;99.90;;;;;;5008359;28;20026;-58
2023/12/29 10:34:35;;;;;;;6.15;1.10;;;11.20;99.90;;;;;;5010307;28;20057;-59
2023/12/29 10:37:03;;;;;;;14.93;1.48;;;11.30;99.90;;;;;;5008215;28;20428;-59
2023/12/29 10:39:29;;;;;;;4.82;1.30;;;11.30;99.90;;;;;;5009304;28;20484;-57
2023/12/29 10:42:06;;;;;;;5.00;1.20;;;11.30;99.90;;;;;;5010907;28;20026;-58
2023/12/29 10:44:32;;;;;;;4.70;1.13;;;11.40;99.90;;;;;;5009826;28;20404;-58
2023/12/29 10:46:57;;;;;;;2.92;1.15;;;11.40;99.90;;;;;;5008523;28;20026;-58
2023/12/29 10:49:23;;;;;;;5.05;1.27;;;11.40;99.90;;;;;;5008953;28;20029;-60
2023/12/29 10:51:48;;;;;;;3.78;0.90;;;11.50;99.90;;;;;;5009976;28;20496;-59
2023/12/29 10:54:23;;;;;;;4.25;0.80;;;11.50;99.90;;;;;;5008205;28;20032;-59
2023/12/29 10:57:02;;;;;;;2.88;1.00;;;11.50;99.90;;;;;;5011355;28;20026;-59
2023/12/29 10:59:28;;;;;;;2.22;0.80;;;11.50;99.90;;;;;;5009576;28;20053;-59
2023/12/29 11:01:53;;;;;;;2.08;0.60;;;11.50;99.90;;;;;;5008630;28;20558;-59
2023/12/29 11:04:22;;;;;;;2.63;0.60;;;11.60;99.90;;;;;;5010000;28;20104;-58
2023/12/29 11:06:50;;;;;;;7.32;0.73;;;11.60;99.90;;;;;;5008220;28;20393;-59
2023/12/29 11:09:31;;;;;;;2.33;0.60;;;11.70;99.90;;;;;;5009266;28;20101;-58
2023/12/29 11:12:01;;;;;;;2.63;0.57;;;11.70;99.90;;;;;;5007867;28;20097;-60
2023/12/29 11:14:30;;;;;;;2.05;0.63;;;11.70;99.90;;;;;;5006209;28;20053;-57
2023/12/29 11:16:57;;;;;;;4.38;0.60;;;11.70;99.90;;;;;;5010540;28;20087;-59
2023/12/29 11:19:23;;;;;;;3.75;0.57;;;11.80;99.90;;;;;;5007665;28;20527;-58
2023/12/29 11:21:53;;;;;;;1.27;0.57;;;11.80;99.90;;;;;;5008607;28;20069;-60
2023/12/29 11:24:19;;;;;;;2.20;0.55;;;11.90;99.90;;;;;;5007800;28;20488;-58
2023/12/29 11:26:44;;;;;;;5.97;0.60;;;12.00;99.90;;;;;;5008427;28;20022;-59
2023/12/29 11:29:12;;;;;;;3.85;0.60;;;12.00;99.90;;;;;;5001320;28;20018;-59
2023/12/29 11:31:38;;;;;;;0.73;0.50;;;12.00;99.90;;;;;;5008050;28;20492;-58
2023/12/29 11:34:16;;;;;;;2.15;0.90;;;12.00;99.90;;;;;;5001586;28;20467;-58
2023/12/29 11:36:45;;;;;;;4.13;0.85;;;12.10;99.90;;;;;;5008234;28;20034;-59
2023/12/29 11:39:42;;;;;;;4.38;1.27;;;12.20;99.90;;;;;;5007757;28;20068;-57
2023/12/29 11:42:27;;;;;;;4.90;0.68;;;12.20;99.90;;;;;;5008277;28;20097;-58
2023/12/29 11:44:52;;;;;;;;;;;12.20;99.90;;;;;;5000484;28;20447;-58
2023/12/29 11:47:36;;;;;;;2.67;0.70;;;12.20;99.90;;;;;;5008101;28;19909;-58
2023/12/29 11:50:03;;;;;;;0.98;0.50;;;12.20;99.90;;;;;;5004568;28;20123;-57
2023/12/29 11:52:36;;;;;;;3.05;0.60;;;12.30;99.90;;;;;;5009654;28;20116;-57
2023/12/29 11:55:14;;;;;;;2.72;0.70;;;12.30;99.90;;;;;;5010692;28;20101;-56
2023/12/29 11:57:41;;;;;;;4.57;0.70;;;12.30;99.90;;;;;;5008315;28;20041;-58
2023/12/29 12:00:08;;;;;;;2.80;0.52;;;12.30;99.90;;;;;;5006113;28;20115;-58
2023/12/29 12:02:33;;;;;;;5.35;0.75;;;12.30;99.90;;;;;;5007108;28;20094;-58
2023/12/29 12:04:59;;;;;;;3.17;0.55;;;12.40;99.90;;;;;;5008079;28;20022;-58
2023/12/29 12:07:24;;;;;;;6.35;0.90;;;12.40;99.90;;;;;;5007422;28;20033;-59
2023/12/29 12:09:51;;;;;;;1.25;0.50;;;12.40;99.90;;;;;;5009393;28;20101;-56
2023/12/29 12:12:41;;;;;;;1.00;0.70;;;12.40;99.90;;;;;;5006184;28;20041;-58
2023/12/29 12:15:31;;;;;;;5.28;0.82;;;12.40;99.90;;;;;;5008147;28;20096;-56
2023/12/29 12:18:07;;;;;;;4.05;0.63;;;12.40;99.90;;;;;;5010297;28;20036;-58
2023/12/29 12:20:33;;;;;;;1.98;0.50;;;12.50;99.90;;;;;;5010432;28;20091;-59
2023/12/29 12:23:06;;;;;;;3.10;0.60;;;12.50;99.90;;;;;;5008083;28;20543;-59
2023/12/29 12:25:37;;;;;;;2.65;0.80;;;12.50;99.90;;;;;;5008358;28;20025;-57
2023/12/29 12:28:06;;;;;;;3.30;0.40;;;12.50;99.90;;;;;;5009761;28;20017;-59
2023/12/29 12:30:34;;;;;;;2.47;0.50;;;12.50;99.90;;;;;;5007477;28;20030;-58
2023/12/29 12:33:02;;;;;;;1.40;0.38;;;12.50;99.90;;;;;;5006172;28;20101;-60
2023/12/29 12:35:28;;;;;;;1.63;1.10;;;12.50;99.90;;;;;;5007087;28;20029;-60
2023/12/29 12:38:08;;;;;;;1.48;0.60;;;12.50;99.90;;;;;;5014365;28;20030;-59
2023/12/29 12:40:34;;;;;;;1.80;0.40;;;12.50;99.90;;;;;;5011425;28;20026;-58
2023/12/29 12:43:00;;;;;;;0.70;0.52;;;12.50;99.90;;;;;;5010767;28;20081;-58